Time;durP1;ratioP1;P1;durP2;ratioP2;P2;SDS_P1;SDS_P2;PMS_P1;PMS_P2;Temp;Humidity;BMP_temperature;BMP_pressure;BME280_temperature;BME280_humidity;BME280_pressure;Samples;Min_cycle;Max_cycle;Signal;HPM_P1;HPM_P2
2023/03/23 00:01:00;;;;;;;3.80;1.90;;;14.90;99.90;;;;;;5092979;28;20304;-58
2023/03/23 00:03:28;;;;;;;2.93;1.90;;;14.90;99.90;;;;;;5092372;28;20208;-57
2023/03/23 00:05:59;;;;;;;3.30;2.03;;;14.90;99.90;;;;;;5092640;28;20204;-59
2023/03/23 00:08:27;;;;;;;4.40;2.00;;;14.90;99.90;;;;;;5092629;28;20705;-59
2023/03/23 00:10:56;;;;;;;2.57;2.03;;;14.90;99.90;;;;;;5093327;28;20208;-58
2023/03/23 00:13:23;;;;;;;3.00;1.80;;;15.00;99.90;;;;;;5092804;28;20200;-57
2023/03/23 00:15:51;;;;;;;2.80;1.40;;;15.00;99.90;;;;;;5093191;28;20208;-58
2023/03/23 00:18:21;;;;;;;2.47;1.37;;;15.10;99.90;;;;;;5093056;28;20252;-58
2023/03/23 00:20:49;;;;;;;1.57;1.10;;;15.10;99.90;;;;;;5092743;28;20250;-58
2023/03/23 00:23:19;;;;;;;2.47;1.30;;;15.10;99.90;;;;;;5091647;28;20208;-58
2023/03/23 00:25:48;;;;;;;1.60;1.20;;;15.20;99.90;;;;;;5092653;28;20234;-58
2023/03/23 00:28:15;;;;;;;1.87;1.30;;;15.30;99.90;;;;;;5092737;28;20692;-57
2023/03/23 00:30:44;;;;;;;1.57;1.20;;;15.30;99.90;;;;;;5092616;28;20212;-58
2023/03/23 00:33:13;;;;;;;2.63;1.33;;;15.30;99.90;;;;;;5092420;28;20216;-58
2023/03/23 00:35:41;;;;;;;1.43;1.00;;;15.40;99.90;;;;;;5092520;28;20243;-58
2023/03/23 00:38:08;;;;;;;1.30;1.17;;;15.40;99.60;;;;;;5093743;28;20201;-57
2023/03/23 00:40:36;;;;;;;3.20;1.23;;;15.50;99.40;;;;;;5094292;28;20303;-58
2023/03/23 00:43:04;;;;;;;1.63;1.10;;;15.60;99.60;;;;;;5093708;28;20722;-58
2023/03/23 00:45:34;;;;;;;2.43;1.20;;;15.60;99.10;;;;;;5093276;28;20225;-59
2023/03/23 00:48:04;;;;;;;1.50;1.17;;;15.60;99.00;;;;;;5093759;28;20216;-58
2023/03/23 00:50:30;;;;;;;2.13;1.20;;;15.70;98.70;;;;;;5092402;28;20212;-58
2023/03/23 00:52:57;;;;;;;1.30;1.20;;;15.70;98.40;;;;;;5092216;28;20232;-58
2023/03/23 00:55:25;;;;;;;2.93;1.40;;;15.80;98.50;;;;;;5092968;28;20220;-58
2023/03/23 00:57:53;;;;;;;2.20;1.30;;;15.70;97.90;;;;;;5092425;28;20212;-58
2023/03/23 01:00:22;;;;;;;1.98;1.20;;;15.70;97.80;;;;;;5092103;28;20310;-58
2023/03/23 01:02:51;;;;;;;3.43;1.40;;;15.70;97.50;;;;;;5092673;28;20216;-58
2023/03/23 01:05:18;;;;;;;1.83;1.10;;;15.70;97.30;;;;;;5092228;28;20318;-58
2023/03/23 01:07:44;;;;;;;1.42;1.10;;;15.80;97.00;;;;;;5092046;28;20224;-59
2023/03/23 01:10:15;;;;;;;2.13;1.20;;;15.80;96.90;;;;;;5092494;28;20204;-59
2023/03/23 01:12:43;;;;;;;1.57;1.20;;;15.80;96.80;;;;;;5092161;28;20208;-59
2023/03/23 01:15:10;;;;;;;2.20;1.17;;;15.90;96.90;;;;;;5091788;28;20227;-57
2023/03/23 01:17:38;;;;;;;4.13;1.20;;;15.90;96.80;;;;;;5092295;28;20205;-58
2023/03/23 01:20:07;;;;;;;1.80;1.30;;;15.90;96.70;;;;;;5092245;28;20204;-57
2023/03/23 01:22:33;;;;;;;1.50;1.00;;;15.90;96.70;;;;;;5092266;28;20210;-58
2023/03/23 01:25:00;;;;;;;3.37;1.20;;;15.90;96.50;;;;;;5091630;28;20231;-57
2023/03/23 01:27:27;;;;;;;1.70;1.20;;;15.90;96.20;;;;;;5091816;28;20204;-57
2023/03/23 01:29:54;;;;;;;1.40;1.13;;;15.80;96.10;;;;;;5091853;28;20261;-57
2023/03/23 01:32:21;;;;;;;2.90;1.30;;;15.90;96.20;;;;;;5092171;28;20672;-56
2023/03/23 01:34:49;;;;;;;2.50;1.33;;;15.90;96.20;;;;;;5092793;28;20227;-57
2023/03/23 01:37:16;;;;;;;3.03;1.33;;;15.80;95.90;;;;;;5095684;28;20219;-57
2023/03/23 01:39:43;;;;;;;3.07;1.50;;;15.80;95.80;;;;;;5095833;28;20672;-56
2023/03/23 01:42:10;;;;;;;2.07;1.10;;;15.80;95.60;;;;;;5095667;28;20679;-57
2023/03/23 01:45:16;;;;;;;1.97;1.10;;;15.80;95.70;;;;;;5095380;28;20224;-57
2023/03/23 01:47:43;;;;;;;1.70;1.00;;;15.80;95.60;;;;;;5090055;28;20208;-58
2023/03/23 01:50:11;;;;;;;2.33;1.30;;;15.80;95.30;;;;;;5095415;28;20664;-58
2023/03/23 01:52:39;;;;;;;1.60;1.13;;;15.80;95.50;;;;;;5095351;28;20219;-58
2023/03/23 01:55:06;;;;;;;1.87;1.10;;;15.70;95.50;;;;;;5095138;28;20289;-58
2023/03/23 01:57:34;;;;;;;2.00;1.13;;;15.80;95.40;;;;;;5095365;28;20204;-58
2023/03/23 02:00:08;;;;;;;2.60;1.10;;;15.80;95.30;;;;;;5094940;28;20214;-58
2023/03/23 02:02:35;;;;;;;1.03;0.93;;;15.90;95.30;;;;;;5095110;28;20232;-58
2023/03/23 02:05:09;;;;;;;1.63;1.10;;;15.90;95.10;;;;;;5094477;28;20250;-57
2023/03/23 02:07:38;;;;;;;1.75;1.13;;;15.90;94.90;;;;;;5095103;28;20399;-58
2023/03/23 02:10:05;;;;;;;2.33;1.45;;;16.00;95.00;;;;;;5094977;28;20254;-58
2023/03/23 02:12:32;;;;;;;1.60;1.20;;;15.90;95.00;;;;;;5094717;28;20262;-58
2023/03/23 02:14:59;;;;;;;2.53;1.00;;;16.00;94.90;;;;;;5094466;28;20231;-58
2023/03/23 02:17:33;;;;;;;1.40;1.00;;;16.00;94.80;;;;;;5094578;28;20208;-58
2023/03/23 02:20:13;;;;;;;1.48;1.10;;;16.00;94.70;;;;;;5094822;28;20207;-58
2023/03/23 02:23:24;;;;;;;2.87;1.30;;;16.00;94.70;;;;;;5094576;28;20253;-58
2023/03/23 02:26:06;;;;;;;1.47;1.10;;;16.00;94.50;;;;;;5065792;28;20671;-58
2023/03/23 02:29:02;;;;;;;2.53;1.13;;;15.90;94.60;;;;;;5094289;28;20632;-58
2023/03/23 02:31:54;;;;;;;1.63;1.13;;;15.90;94.60;;;;;;5089119;28;20205;-58
2023/03/23 02:34:27;;;;;;;1.48;1.10;;;15.80;94.70;;;;;;5093869;28;20619;-58
2023/03/23 02:37:00;;;;;;;2.70;1.15;;;15.90;94.60;;;;;;5094509;28;20203;-58
2023/03/23 02:39:32;;;;;;;2.17;1.30;;;15.90;94.60;;;;;;5094551;28;20215;-58
2023/03/23 02:42:03;;;;;;;1.10;0.93;;;15.90;94.60;;;;;;5094176;28;20204;-58
2023/03/23 02:44:32;;;;;;;2.03;1.03;;;15.90;94.60;;;;;;5093861;28;20228;-59
2023/03/23 02:47:01;;;;;;;2.10;1.00;;;15.90;94.60;;;;;;5093419;28;20204;-58
2023/03/23 02:49:33;;;;;;;5.60;1.20;;;15.90;94.70;;;;;;5093926;28;20594;-58
2023/03/23 02:52:02;;;;;;;1.63;1.10;;;16.00;94.80;;;;;;5094079;28;20632;-58
2023/03/23 02:54:30;;;;;;;1.65;1.00;;;16.00;94.80;;;;;;5093584;28;20637;-58
2023/03/23 02:56:58;;;;;;;1.43;1.20;;;16.00;95.00;;;;;;5094162;28;20209;-58
2023/03/23 02:59:24;;;;;;;2.60;1.20;;;15.90;95.10;;;;;;5093762;28;20232;-58
2023/03/23 03:02:03;;;;;;;3.70;1.40;;;15.90;95.10;;;;;;5094184;28;20220;-57
2023/03/23 03:04:35;;;;;;;1.30;1.00;;;16.00;95.20;;;;;;5093982;28;20608;-58
2023/03/23 03:07:35;;;;;;;1.33;1.00;;;16.00;95.30;;;;;;5093819;28;20209;-56
2023/03/23 03:10:06;;;;;;;1.98;1.25;;;16.00;95.60;;;;;;5093751;28;20224;-58
2023/03/23 03:12:42;;;;;;;1.53;1.00;;;15.90;95.30;;;;;;5093683;28;20212;-57
2023/03/23 03:15:18;;;;;;;1.73;1.30;;;15.90;95.60;;;;;;5093519;28;20224;-58
2023/03/23 03:17:52;;;;;;;2.55;1.10;;;15.80;95.60;;;;;;5093970;28;20218;-57
2023/03/23 03:20:21;;;;;;;1.57;1.00;;;15.90;95.70;;;;;;5093430;28;20664;-58
2023/03/23 03:22:48;;;;;;;1.93;1.20;;;15.90;96.10;;;;;;5093657;28;20204;-58
2023/03/23 03:25:16;;;;;;;1.87;1.20;;;15.90;95.70;;;;;;5093082;28;20311;-58
2023/03/23 03:27:48;;;;;;;1.77;1.08;;;16.00;95.70;;;;;;5093236;28;20203;-57
2023/03/23 03:30:20;;;;;;;1.60;1.05;;;16.00;95.70;;;;;;5093441;28;20301;-57
2023/03/23 03:32:50;;;;;;;1.60;1.20;;;16.00;95.80;;;;;;5093383;28;20208;-57
2023/03/23 03:35:18;;;;;;;1.48;1.10;;;16.00;95.70;;;;;;5092978;28;20255;-57
2023/03/23 03:37:46;;;;;;;1.93;1.10;;;16.00;95.60;;;;;;5093163;28;20200;-57
2023/03/23 03:40:15;;;;;;;2.13;1.20;;;16.00;95.50;;;;;;5093064;28;20207;-58
2023/03/23 03:42:43;;;;;;;1.50;1.03;;;16.00;95.40;;;;;;5092923;28;20679;-58
2023/03/23 03:45:13;;;;;;;1.40;1.20;;;16.00;95.40;;;;;;5092483;28;20232;-58
2023/03/23 03:47:39;;;;;;;1.67;1.20;;;16.00;95.20;;;;;;5093048;28;20575;-58
2023/03/23 03:50:07;;;;;;;1.58;1.08;;;16.00;95.10;;;;;;5092634;28;20230;-58
2023/03/23 03:52:34;;;;;;;2.28;1.40;;;16.00;95.10;;;;;;5092945;28;20204;-58
2023/03/23 03:55:02;;;;;;;1.20;1.10;;;16.00;95.00;;;;;;5092409;28;20220;-56
2023/03/23 03:57:29;;;;;;;3.53;1.23;;;16.00;95.00;;;;;;5092521;28;20545;-56
2023/03/23 03:59:56;;;;;;;1.97;1.23;;;16.00;94.90;;;;;;5093171;28;20265;-56
2023/03/23 04:02:23;;;;;;;1.90;1.40;;;16.00;94.70;;;;;;5093118;28;20201;-59
2023/03/23 04:04:52;;;;;;;2.08;1.83;;;16.00;94.80;;;;;;5092396;28;20236;-56
2023/03/23 04:07:19;;;;;;;8.38;6.10;;;16.00;94.80;;;;;;5092849;28;20583;-56
2023/03/23 04:09:47;;;;;;;1.63;1.27;;;16.10;94.90;;;;;;5092676;28;20230;-56
2023/03/23 04:12:16;;;;;;;2.95;1.60;;;16.00;94.90;;;;;;5092498;28;20214;-56
2023/03/23 04:14:42;;;;;;;2.53;1.30;;;16.00;95.00;;;;;;5092704;28;20224;-56
2023/03/23 04:17:10;;;;;;;2.78;1.20;;;16.10;94.90;;;;;;5092330;28;20679;-57
2023/03/23 04:19:37;;;;;;;2.08;1.48;;;16.20;94.90;;;;;;5092561;28;20196;-56
2023/03/23 04:22:05;;;;;;;2.23;1.40;;;16.20;95.00;;;;;;5092605;28;20618;-56
2023/03/23 04:24:33;;;;;;;1.50;1.20;;;16.20;94.90;;;;;;5092152;28;20282;-56
2023/03/23 04:27:01;;;;;;;1.60;1.23;;;16.20;95.00;;;;;;5092439;28;20656;-57
2023/03/23 04:29:30;;;;;;;2.53;1.10;;;16.30;94.90;;;;;;5092350;28;20232;-57
2023/03/23 04:31:56;;;;;;;2.13;1.30;;;16.30;94.90;;;;;;5092553;28;20320;-56
2023/03/23 04:34:23;;;;;;;2.40;1.20;;;16.30;94.80;;;;;;5092264;28;20230;-56
2023/03/23 04:36:50;;;;;;;2.58;1.20;;;16.30;94.70;;;;;;5092496;28;20232;-57
2023/03/23 04:39:17;;;;;;;1.20;0.98;;;16.30;94.60;;;;;;5092427;28;20227;-56
2023/03/23 04:41:45;;;;;;;3.90;2.00;;;16.40;94.60;;;;;;5092568;28;20204;-57
2023/03/23 04:44:17;;;;;;;4.05;1.58;;;16.40;94.60;;;;;;5092074;28;20224;-56
2023/03/23 04:46:49;;;;;;;2.78;1.60;;;16.40;94.80;;;;;;5092307;28;20230;-58
2023/03/23 04:49:21;;;;;;;3.42;1.67;;;16.40;94.70;;;;;;5092080;28;20297;-58
2023/03/23 04:51:50;;;;;;;1.27;1.10;;;16.40;94.70;;;;;;5092305;28;20257;-58
2023/03/23 04:54:17;;;;;;;2.03;1.33;;;16.40;94.70;;;;;;5091997;28;20230;-59
2023/03/23 04:56:44;;;;;;;2.08;1.52;;;16.40;94.80;;;;;;5092441;28;20208;-59
2023/03/23 04:59:12;;;;;;;2.70;1.60;;;16.40;94.80;;;;;;5092232;28;20204;-58
2023/03/23 05:01:40;;;;;;;1.25;0.90;;;16.40;94.80;;;;;;5092373;28;20208;-57
2023/03/23 05:04:08;;;;;;;2.05;1.15;;;16.40;95.20;;;;;;5091677;28;20235;-58
2023/03/23 05:06:35;;;;;;;2.20;1.67;;;16.30;94.80;;;;;;5092281;28;20212;-57
2023/03/23 05:09:03;;;;;;;1.67;1.42;;;16.40;94.80;;;;;;5092690;28;20231;-58
2023/03/23 05:11:30;;;;;;;2.30;1.50;;;16.30;94.70;;;;;;5095736;28;20311;-58
2023/03/23 05:13:56;;;;;;;2.72;1.40;;;16.30;94.70;;;;;;5095913;28;20224;-58
2023/03/23 05:16:23;;;;;;;1.88;1.38;;;16.30;94.60;;;;;;5095710;28;20204;-59
2023/03/23 05:18:50;;;;;;;2.20;1.80;;;16.40;94.70;;;;;;5095848;28;20205;-59
2023/03/23 05:21:18;;;;;;;2.07;1.40;;;16.40;94.60;;;;;;5096318;28;20222;-59
2023/03/23 05:23:45;;;;;;;1.57;0.93;;;16.40;94.60;;;;;;5095799;28;20263;-57
2023/03/23 05:26:12;;;;;;;1.73;1.10;;;16.40;94.50;;;;;;5095608;28;20292;-58
2023/03/23 05:28:41;;;;;;;2.40;1.35;;;16.50;94.60;;;;;;5095732;28;20219;-58
2023/03/23 05:31:08;;;;;;;1.75;1.30;;;16.50;94.50;;;;;;5095630;28;20215;-58
2023/03/23 05:33:36;;;;;;;2.17;1.45;;;16.50;94.40;;;;;;5095427;28;20235;-57
2023/03/23 05:36:04;;;;;;;4.57;2.28;;;16.50;94.40;;;;;;5095707;28;20204;-57
2023/03/23 05:38:32;;;;;;;2.83;1.52;;;16.60;94.40;;;;;;5095537;28;20208;-58
2023/03/23 05:41:00;;;;;;;2.57;1.90;;;16.50;94.50;;;;;;5095151;28;20583;-59
2023/03/23 05:43:27;;;;;;;2.67;1.98;;;16.50;94.50;;;;;;5094932;28;20249;-59
2023/03/23 05:45:54;;;;;;;2.45;1.45;;;16.50;94.50;;;;;;5095072;28;20630;-58
2023/03/23 05:48:21;;;;;;;1.70;1.30;;;16.50;94.50;;;;;;5095308;28;20233;-58
2023/03/23 05:50:48;;;;;;;1.52;1.15;;;16.50;94.40;;;;;;5094998;28;20224;-57
2023/03/23 05:53:16;;;;;;;2.03;1.30;;;16.60;94.40;;;;;;5095286;28;20239;-58
2023/03/23 05:55:44;;;;;;;1.58;1.10;;;16.70;94.40;;;;;;5095321;28;20310;-58
2023/03/23 05:58:11;;;;;;;3.38;1.42;;;16.70;94.60;;;;;;5095441;28;20303;-58
2023/03/23 06:00:38;;;;;;;2.70;1.50;;;16.70;94.50;;;;;;5095127;28;20205;-58
2023/03/23 06:03:05;;;;;;;2.03;1.52;;;16.70;94.60;;;;;;5095629;28;20592;-57
2023/03/23 06:05:32;;;;;;;1.70;1.55;;;16.70;94.60;;;;;;5094611;28;20235;-58
2023/03/23 06:07:59;;;;;;;1.90;1.45;;;16.70;94.70;;;;;;5094888;28;20206;-58
2023/03/23 06:10:27;;;;;;;2.20;1.58;;;16.80;94.70;;;;;;5094741;28;20228;-58
2023/03/23 06:12:55;;;;;;;1.60;1.13;;;16.80;94.60;;;;;;5094648;28;20639;-57
2023/03/23 06:15:21;;;;;;;3.03;1.35;;;16.80;94.40;;;;;;5094367;28;20224;-56
2023/03/23 06:17:50;;;;;;;2.42;1.60;;;16.90;94.30;;;;;;5094587;28;20214;-57
2023/03/23 06:20:17;;;;;;;2.83;1.27;;;16.90;94.20;;;;;;5094687;28;20200;-56
2023/03/23 06:22:44;;;;;;;3.72;2.92;;;17.00;94.00;;;;;;5093406;28;20212;-58
2023/03/23 06:25:12;;;;;;;5.40;4.78;;;17.00;94.00;;;;;;5094086;28;20228;-58
2023/03/23 06:27:40;;;;;;;5.30;3.38;;;17.00;94.00;;;;;;5094518;28;20204;-57
2023/03/23 06:30:11;;;;;;;5.22;2.10;;;17.00;94.10;;;;;;5094456;28;20224;-58
2023/03/23 06:32:39;;;;;;;2.10;1.30;;;17.00;94.20;;;;;;5094560;28;20307;-57
2023/03/23 06:35:09;;;;;;;1.70;1.23;;;17.00;94.10;;;;;;5094267;28;20224;-57
2023/03/23 06:37:36;;;;;;;2.35;1.10;;;17.10;94.10;;;;;;5094426;28;20204;-57
2023/03/23 06:40:06;;;;;;;2.55;1.30;;;17.10;94.00;;;;;;5094293;28;20287;-57
2023/03/23 06:42:33;;;;;;;4.72;1.65;;;17.10;94.00;;;;;;5094446;28;20249;-58
2023/03/23 06:45:00;;;;;;;2.10;1.30;;;17.10;94.10;;;;;;5093788;28;20224;-57
2023/03/23 06:47:29;;;;;;;3.35;1.95;;;17.00;94.10;;;;;;5094061;28;20223;-58
2023/03/23 06:49:56;;;;;;;2.40;1.30;;;17.00;94.20;;;;;;5094142;28;20216;-59
2023/03/23 06:52:24;;;;;;;1.95;1.00;;;17.00;94.30;;;;;;5094196;28;20408;-57
2023/03/23 06:54:50;;;;;;;4.63;1.30;;;17.00;94.50;;;;;;5093741;28;20235;-57
2023/03/23 06:57:17;;;;;;;1.75;1.30;;;16.90;95.30;;;;;;5094159;28;20215;-59
2023/03/23 06:59:45;;;;;;;1.40;1.20;;;17.00;96.00;;;;;;5094027;28;20204;-57
2023/03/23 07:02:13;;;;;;;4.32;1.33;;;17.00;96.40;;;;;;5094097;28;20236;-58
2023/03/23 07:04:42;;;;;;;3.72;1.50;;;17.10;96.70;;;;;;5093398;28;20325;-58
2023/03/23 07:07:10;;;;;;;1.80;1.30;;;17.30;97.20;;;;;;5093583;28;20215;-58
2023/03/23 07:09:38;;;;;;;2.80;1.42;;;17.50;97.50;;;;;;5094113;28;20263;-58
2023/03/23 07:12:04;;;;;;;2.28;1.50;;;17.80;97.20;;;;;;5093992;28;20208;-58
2023/03/23 07:14:31;;;;;;;4.65;1.40;;;17.90;96.50;;;;;;5093739;28;20853;-58
2023/03/23 07:16:58;;;;;;;2.05;1.30;;;18.10;96.20;;;;;;5093713;28;20200;-58
2023/03/23 07:19:25;;;;;;;1.63;1.40;;;18.10;96.20;;;;;;5093452;28;20204;-58
2023/03/23 07:21:54;;;;;;;3.13;1.50;;;18.20;95.50;;;;;;5093226;28;20204;-58
2023/03/23 07:24:20;;;;;;;2.42;1.50;;;18.30;95.00;;;;;;5093291;28;20703;-58
2023/03/23 07:26:47;;;;;;;2.42;1.58;;;18.30;94.90;;;;;;5093840;28;20231;-59
2023/03/23 07:29:14;;;;;;;4.45;1.63;;;18.30;95.00;;;;;;5093794;28;20204;-58
2023/03/23 07:31:42;;;;;;;5.05;1.30;;;18.30;94.60;;;;;;5093804;28;20249;-57
2023/03/23 07:34:08;;;;;;;4.20;1.35;;;18.20;94.50;;;;;;5092965;28;20232;-58
2023/03/23 07:36:37;;;;;;;2.83;1.60;;;18.20;94.20;;;;;;5093720;28;20211;-56
2023/03/23 07:39:06;;;;;;;5.68;1.30;;;18.00;94.10;;;;;;5094015;28;20204;-56
2023/03/23 07:41:33;;;;;;;2.08;1.63;;;17.90;94.20;;;;;;5093744;28;20759;-57
2023/03/23 07:44:00;;;;;;;3.85;1.88;;;17.90;94.20;;;;;;5093738;28;20261;-57
2023/03/23 07:46:27;;;;;;;7.53;2.30;;;17.80;94.40;;;;;;5093922;28;20302;-57
2023/03/23 07:48:54;;;;;;;8.15;2.30;;;17.90;94.50;;;;;;5093286;28;20200;-57
2023/03/23 07:51:21;;;;;;;3.95;2.25;;;17.80;94.50;;;;;;5093877;28;20238;-57
2023/03/23 07:53:48;;;;;;;8.75;2.40;;;17.80;94.50;;;;;;5093797;28;20224;-56
2023/03/23 07:56:19;;;;;;;7.10;2.15;;;17.90;94.50;;;;;;5093744;28;20224;-59
2023/03/23 07:58:46;;;;;;;5.43;3.33;;;17.90;94.30;;;;;;5093832;28;20204;-57
2023/03/23 08:01:13;;;;;;;8.88;2.38;;;18.10;94.30;;;;;;5094042;28;20204;-58
2023/03/23 08:03:40;;;;;;;3.15;1.95;;;18.20;94.50;;;;;;5094043;28;20232;-57
2023/03/23 08:06:08;;;;;;;4.22;2.30;;;18.40;94.70;;;;;;5094396;28;20575;-57
2023/03/23 08:08:35;;;;;;;6.05;2.15;;;18.80;94.30;;;;;;5095135;28;20266;-57
2023/03/23 08:11:02;;;;;;;3.58;2.35;;;19.30;94.00;;;;;;5095175;28;20309;-56
2023/03/23 08:13:30;;;;;;;6.00;2.00;;;19.80;93.60;;;;;;5093957;28;20283;-57
2023/03/23 08:15:57;;;;;;;4.78;2.08;;;20.10;92.90;;;;;;5093937;28;20296;-57
2023/03/23 08:18:24;;;;;;;3.85;2.15;;;20.40;92.70;;;;;;5094416;28;20200;-59
2023/03/23 08:20:53;;;;;;;3.55;2.20;;;20.50;92.40;;;;;;5094075;28;20302;-58
2023/03/23 08:23:21;;;;;;;5.25;2.25;;;20.60;92.40;;;;;;5093570;28;20208;-58
2023/03/23 08:25:48;;;;;;;7.78;1.98;;;20.80;92.30;;;;;;5093858;28;20254;-58
2023/03/23 08:28:15;;;;;;;5.97;2.00;;;20.90;92.10;;;;;;5094041;28;20236;-57
2023/03/23 08:30:43;;;;;;;4.07;1.50;;;21.10;91.80;;;;;;5094046;28;20766;-57
2023/03/23 08:33:11;;;;;;;11.25;1.65;;;21.30;91.40;;;;;;5093934;28;20210;-57
2023/03/23 08:35:39;;;;;;;5.18;1.67;;;21.40;91.20;;;;;;5093498;28;20208;-57
2023/03/23 08:38:06;;;;;;;5.75;1.77;;;21.50;91.00;;;;;;5093597;28;20262;-56
2023/03/23 08:40:33;;;;;;;3.53;1.70;;;21.50;90.90;;;;;;5093286;28;20206;-58
2023/03/23 08:43:00;;;;;;;6.57;4.00;;;21.50;90.90;;;;;;5093718;28;20273;-58
2023/03/23 08:45:27;;;;;;;2.90;1.67;;;21.50;90.90;;;;;;5094899;28;20220;-58
2023/03/23 08:47:56;;;;;;;3.80;1.52;;;21.50;91.00;;;;;;5097114;28;20203;-57
2023/03/23 08:50:26;;;;;;;5.07;1.42;;;21.40;91.30;;;;;;5097184;28;20224;-58
2023/03/23 08:52:54;;;;;;;5.00;1.50;;;21.40;91.20;;;;;;5097478;28;20199;-58
2023/03/23 08:55:22;;;;;;;2.20;1.38;;;21.30;91.20;;;;;;5096561;28;20730;-59
2023/03/23 08:57:49;;;;;;;4.75;2.90;;;21.10;91.90;;;;;;5096483;28;20204;-59
2023/03/23 09:00:19;;;;;;;4.57;1.98;;;20.80;92.40;;;;;;5096701;28;20203;-58
2023/03/23 09:02:47;;;;;;;3.08;1.95;;;20.50;93.20;;;;;;5097132;28;20204;-57
2023/03/23 09:05:16;;;;;;;2.95;1.75;;;20.20;93.50;;;;;;5096918;28;20232;-61
2023/03/23 09:07:45;;;;;;;2.53;1.52;;;20.00;93.60;;;;;;5092442;28;20208;-62
2023/03/23 09:10:13;;;;;;;2.30;1.55;;;20.00;93.70;;;;;;5095224;28;20374;-58
2023/03/23 09:12:40;;;;;;;5.38;1.50;;;20.00;94.10;;;;;;5095189;28;20295;-56
2023/03/23 09:15:09;;;;;;;7.40;1.70;;;20.00;94.00;;;;;;5095170;28;20307;-56
2023/03/23 09:17:37;;;;;;;3.72;1.48;;;19.90;94.10;;;;;;5094768;28;20546;-58
2023/03/23 09:20:10;;;;;;;2.40;1.52;;;20.00;94.50;;;;;;5094800;28;20796;-58
2023/03/23 09:22:39;;;;;;;1.75;1.20;;;20.00;94.70;;;;;;5094320;28;20678;-58
2023/03/23 09:25:07;;;;;;;2.97;1.90;;;20.00;94.80;;;;;;5094478;28;20234;-57
2023/03/23 09:27:34;;;;;;;6.53;2.03;;;20.10;94.90;;;;;;5095049;28;20215;-57
2023/03/23 09:30:01;;;;;;;3.92;1.58;;;20.20;94.90;;;;;;5094691;28;20652;-58
2023/03/23 09:32:28;;;;;;;3.20;1.50;;;20.40;94.70;;;;;;5095287;28;20201;-58
2023/03/23 09:34:56;;;;;;;2.15;1.50;;;20.60;94.30;;;;;;5096640;28;20229;-61
2023/03/23 09:37:23;;;;;;;2.35;1.70;;;20.80;93.90;;;;;;5097966;28;20211;-62
2023/03/23 09:39:51;;;;;;;2.10;1.40;;;21.00;93.60;;;;;;5097996;28;20249;-62
2023/03/23 09:42:41;;;;;;;2.38;1.55;;;21.30;93.30;;;;;;5096208;28;20239;-59
2023/03/23 09:45:17;;;;;;;3.47;1.80;;;21.40;93.20;;;;;;5095296;28;20231;-59
2023/03/23 09:47:53;;;;;;;3.08;1.77;;;21.40;92.70;;;;;;5095144;28;20742;-58
2023/03/23 09:50:26;;;;;;;3.60;1.60;;;21.30;92.90;;;;;;5095635;28;20215;-59
2023/03/23 09:52:58;;;;;;;4.88;1.75;;;21.10;93.20;;;;;;5096176;28;20631;-60
2023/03/23 09:55:28;;;;;;;3.97;1.52;;;21.10;93.30;;;;;;5095158;28;20311;-59
2023/03/23 09:58:00;;;;;;;2.03;1.40;;;21.10;93.30;;;;;;5095383;28;20588;-60
2023/03/23 10:00:31;;;;;;;4.18;1.60;;;21.20;93.20;;;;;;5095803;28;20196;-60
2023/03/23 10:03:06;;;;;;;3.75;1.65;;;21.30;93.00;;;;;;5095730;28;20203;-59
2023/03/23 10:05:35;;;;;;;2.50;1.58;;;21.40;93.00;;;;;;5095280;28;20239;-59
2023/03/23 10:08:06;;;;;;;1.48;1.08;;;21.40;92.80;;;;;;5095458;28;20212;-58
2023/03/23 10:10:42;;;;;;;2.70;1.50;;;21.30;93.10;;;;;;5095484;28;20232;-60
2023/03/23 10:13:19;;;;;;;2.65;1.65;;;21.20;93.00;;;;;;5095353;28;20215;-58
2023/03/23 10:15:47;;;;;;;1.65;1.30;;;21.00;93.10;;;;;;5094973;28;20226;-59
2023/03/23 10:18:19;;;;;;;1.83;1.30;;;20.90;93.30;;;;;;5095322;28;20211;-59
2023/03/23 10:20:51;;;;;;;5.57;1.30;;;20.90;93.40;;;;;;5095071;28;20295;-60
2023/03/23 10:23:47;;;;;;;1.92;1.52;;;20.80;93.30;;;;;;5094834;28;20200;-60
2023/03/23 10:26:24;;;;;;;3.17;1.40;;;20.60;93.60;;;;;;5095217;28;20563;-60
2023/03/23 10:28:55;;;;;;;4.30;1.60;;;20.60;93.90;;;;;;5094923;28;20269;-59
2023/03/23 10:31:28;;;;;;;2.83;1.55;;;20.50;94.10;;;;;;5094715;28;20224;-59
2023/03/23 10:33:58;;;;;;;2.65;1.33;;;20.50;94.20;;;;;;5094647;28;20231;-59
2023/03/23 10:36:29;;;;;;;4.78;1.77;;;20.60;94.50;;;;;;5094655;28;20200;-59
2023/03/23 10:39:01;;;;;;;2.58;1.52;;;20.80;94.20;;;;;;5094608;28;20210;-59
2023/03/23 10:41:30;;;;;;;2.33;1.50;;;21.20;94.00;;;;;;5095019;28;20208;-60
2023/03/23 10:43:57;;;;;;;3.55;1.70;;;21.60;94.00;;;;;;5094913;28;20255;-60
2023/03/23 10:46:32;;;;;;;6.63;1.40;;;21.90;93.60;;;;;;5094751;28;20208;-60
2023/03/23 10:49:02;;;;;;;2.90;1.48;;;22.20;93.60;;;;;;5094794;28;20228;-59
2023/03/23 10:51:34;;;;;;;2.78;1.30;;;22.30;93.60;;;;;;5094592;28;20232;-59
2023/03/23 10:54:04;;;;;;;2.00;1.35;;;22.30;93.20;;;;;;5094251;28;20224;-59
2023/03/23 10:56:38;;;;;;;1.58;1.48;;;22.40;92.90;;;;;;5094640;28;20212;-60
2023/03/23 10:59:14;;;;;;;1.63;1.50;;;22.50;92.80;;;;;;5094788;28;20195;-57
2023/03/23 11:01:45;;;;;;;2.13;1.60;;;22.50;92.30;;;;;;5094783;28;20200;-58
2023/03/23 11:04:14;;;;;;;3.58;1.67;;;22.40;92.40;;;;;;5094112;28;20251;-57
2023/03/23 11:06:46;;;;;;;3.10;1.75;;;21.90;92.80;;;;;;5094262;28;20234;-56
2023/03/23 11:09:15;;;;;;;2.40;1.65;;;21.60;93.30;;;;;;5093803;28;20204;-58
2023/03/23 11:11:46;;;;;;;1.40;1.20;;;21.50;93.60;;;;;;5094031;28;20646;-58
2023/03/23 11:14:17;;;;;;;1.10;1.00;;;21.50;93.90;;;;;;5094033;28;20315;-57
2023/03/23 11:16:46;;;;;;;2.45;1.30;;;21.40;94.50;;;;;;5094310;28;20200;-57
2023/03/23 11:19:14;;;;;;;4.80;1.40;;;21.30;95.00;;;;;;5094296;28;20216;-60
2023/03/23 11:21:48;;;;;;;1.90;1.10;;;21.20;95.20;;;;;;5094847;28;20283;-58
2023/03/23 11:24:15;;;;;;;2.35;1.20;;;21.00;95.70;;;;;;5094410;28;20314;-57
2023/03/23 11:26:45;;;;;;;3.15;2.10;;;21.00;95.50;;;;;;5093965;28;20585;-58
2023/03/23 11:29:16;;;;;;;2.00;1.25;;;21.10;95.30;;;;;;5094597;28;20212;-59
2023/03/23 11:31:46;;;;;;;1.77;1.13;;;21.10;95.10;;;;;;5094522;28;20646;-59
2023/03/23 11:34:17;;;;;;;1.80;1.23;;;21.10;96.00;;;;;;5094340;28;20232;-59
2023/03/23 11:36:49;;;;;;;1.67;0.90;;;20.80;96.60;;;;;;5094051;28;20561;-59
2023/03/23 11:39:25;;;;;;;2.42;1.13;;;20.60;97.40;;;;;;5094326;28;20207;-58
2023/03/23 11:41:53;;;;;;;3.60;1.50;;;20.60;97.50;;;;;;5093897;28;20660;-60
2023/03/23 11:44:22;;;;;;;2.10;1.10;;;20.70;97.50;;;;;;5094019;28;20327;-59
2023/03/23 11:46:56;;;;;;;2.78;1.13;;;20.50;98.40;;;;;;5094279;28;20295;-60
2023/03/23 11:49:36;;;;;;;4.13;2.20;;;20.60;98.40;;;;;;5094242;28;20207;-59
2023/03/23 11:52:12;;;;;;;1.83;1.20;;;20.50;99.10;;;;;;5094374;28;20227;-59
2023/03/23 11:54:44;;;;;;;2.30;1.42;;;20.70;99.50;;;;;;5093715;28;20230;-60
2023/03/23 11:57:14;;;;;;;2.10;1.08;;;20.80;98.30;;;;;;5094415;28;20204;-60
2023/03/23 11:59:41;;;;;;;1.92;1.05;;;20.70;98.40;;;;;;5093980;28;20208;-58
2023/03/23 12:02:28;;;;;;;3.63;1.23;;;20.90;98.90;;;;;;5093923;28;20208;-61
2023/03/23 12:05:24;;;;;;;1.48;1.15;;;21.10;97.60;;;;;;5092938;28;20240;-59
2023/03/23 12:08:03;;;;;;;3.70;1.38;;;21.10;97.50;;;;;;5093581;28;20589;-57
2023/03/23 12:10:40;;;;;;;2.13;1.20;;;21.00;97.60;;;;;;5093805;28;20210;-58
2023/03/23 12:13:23;;;;;;;1.45;1.00;;;21.00;97.50;;;;;;5093299;28;20258;-56
2023/03/23 12:15:55;;;;;;;1.65;1.30;;;21.00;97.10;;;;;;5093112;28;20673;-58
2023/03/23 12:18:31;;;;;;;1.73;1.30;;;21.00;97.10;;;;;;5093417;28;20204;-57
2023/03/23 12:21:07;;;;;;;2.47;1.20;;;21.00;98.30;;;;;;5092623;28;20655;-58
2023/03/23 12:23:41;;;;;;;1.40;1.27;;;20.90;98.60;;;;;;5093718;28;20230;-58
2023/03/23 12:26:27;;;;;;;3.42;1.20;;;20.80;98.40;;;;;;5093197;28;20725;-59
2023/03/23 12:29:33;;;;;;;2.38;1.33;;;20.60;98.90;;;;;;5093742;28;20295;-59
2023/03/23 12:32:26;;;;;;;3.40;1.40;;;20.50;98.90;;;;;;5061664;28;20636;-60
2023/03/23 12:35:00;;;;;;;3.47;1.70;;;20.50;99.00;;;;;;5093070;28;20228;-57
2023/03/23 12:37:39;;;;;;;1.80;1.23;;;20.60;98.80;;;;;;5093022;28;20226;-60
2023/03/23 12:40:38;;;;;;;3.08;1.50;;;20.70;98.70;;;;;;5093783;28;20208;-57
2023/03/23 12:43:12;;;;;;;1.75;1.25;;;20.50;98.70;;;;;;5093555;28;20200;-57
2023/03/23 12:46:16;;;;;;;3.60;1.35;;;20.20;99.10;;;;;;5094061;28;20264;-57
2023/03/23 12:48:46;;;;;;;1.35;1.13;;;20.00;99.30;;;;;;5093505;28;20223;-57
2023/03/23 12:51:23;;;;;;;2.20;1.42;;;19.90;99.60;;;;;;5093010;28;20211;-59
2023/03/23 12:53:56;;;;;;;1.63;1.30;;;19.80;99.90;;;;;;5093484;28;20219;-57
2023/03/23 12:56:30;;;;;;;3.88;1.40;;;19.80;99.90;;;;;;5092759;28;20706;-60
2023/03/23 12:59:04;;;;;;;2.08;1.55;;;19.80;99.90;;;;;;5092934;28;20719;-56
2023/03/23 13:01:37;;;;;;;2.97;1.40;;;19.70;99.90;;;;;;5092868;28;20195;-58
2023/03/23 13:04:09;;;;;;;1.60;1.40;;;19.60;99.90;;;;;;5092499;28;20232;-62